Bramble, Montserrat

3:43 AM AST on September 17, 2014 (GMT -0400)
V C Bird International | Change Station
CLOSE
Current Station
Airport
Location: V.C. Bird,
Elevation: 46 ft
Nearby Weather Stations

Elev 46 ft 17.12 °N, 61.78 °W | Updated 43 minutes ago

Scattered Clouds
Scattered Clouds
77 °F
Feels Like 77 °F
N
7
Wind Variable Wind from NNE

Today
High -- | Low -- °F
--% Chance of Precip.
Yesterday
High -- | Low -- °F
Precip. -- in
5:57 AM 6:08 PM
Last Quarter, 38% visible
Pressure 29.95 in
Visibility 6.2 miles
Clouds Scattered Clouds 1800 ft
Scattered Clouds 3500 ft
Dew Point 73 °F
Humidity 89%
Rainfall 0.00 in
Snow Depth Not available.
UV 0 out of 12
Pollen Not available.
Air Quality Not available.
Flu Activity Not available.
METAR TAPA 170700Z 02006KT 9999 SCT018 SCT035 25/23 Q1014 NOSIG

More Conditions Fewer Conditions

Pressure 29.95 in
Visibility 6.2 miles
Clouds Scattered Clouds 1800 ft
Scattered Clouds 3500 ft
Dew Point 73 °F
Humidity 89%
Rainfall 0.00 in
Snow Depth Not available.
UV 0 out of 12
Pollen Not available.
Air Quality Not available.
Flu Activity Not available.
METAR TAPA 170700Z 02006KT 9999 SCT018 SCT035 25/23 Q1014 NOSIG

More Conditions Fewer Conditions

10-Day Weather Forecast

Almanac

Astronomy

Sep. 17, 2014 Rise Set
Actual Time 5:57 AM AST 6:08 PM AST
Civil Twilight 5:35 AM AST 6:30 PM AST
Nautical Twilight 5:10 AM AST 6:55 PM AST
Astronomical Twilight 4:45 AM AST 7:20 PM AST
Moon 12:30 AM AST 1:39 PM AST
Length of Visible Light 12h 55m
Length of Day
12h 11m
Tomorrow will be 0m 56s shorter.
Last Quarter, 38% of the Moon is Illuminated
Today
Last Quarter
Sep 24
New
Oct 1
First Quarter
Oct 8
Full
Oct 15
Last Quarter

Yesterday's Extremes

Country Highs Country Lows

Community

WunderPhotos

Upload Photos

1,753,976 photos uploaded!

Nearby

Snow Depth

Not available.

Earthquake Activity

City Distance Mag. Time & Date
No recent earthquake activity has been reported nearby.
Minimum magnitude displayed is 2.5.

Coastal Water Temperatures

Place Temperature
No Stations Reporting

Nearby Weather Stations